EGNJ - Humberside
Distance from station: E 5mi, 14km
Updated: 07/19/2018 1:50pm
Clear
Clear
 Wind from varies
Wind: varies 2 mph , 4 km/h
Temperature: 68°F , 20°C
Dew Point: 57°F , 14°C
Humidity: 69%
Barometer: 30 inHg , 1016 hPa
Summary: Clear
Visibility: greater than 7 miles , 10 km
2018/07/19 20:50 EGNJ 192050Z VRB02KT CAVOK 20/14 Q1016